Port Star — 3EAS6 — position and weather

sailwx.info

Track history (hours):
 
Tides and Currents Weather Stations Pressure Air Temp Water Temp Dewpoint Dewpoint Depression Visibility Wind Speed Wind Dir Waves Ship Positions

Port Star

Last reported at 2017-Mar-05 14:20 UTC. Time now 2017-Mar-30 18:27 UTC.
Position N 37°22' E 025°55'.
Warning: this ship's position is 25 days out of date.

Length 175.5 m; beam 29.4 m.

Type: Ship. MMSI: 356105000.

Date/timePositionNaut miles runAvg speedWind from/ knotsBaromVisibWave heightAir tempDewpointWater temp
2017-Mar-05 14:20N 37°22' E 025°55'15912.3
2017-Mar-05 01:23N 40°01' E 026°03'14211.7
2017-Mar-04 13:15N 40°57' E 028°55'1 0.2
2017-Mar-04 07:04N 40°58' E 028°55'0 0.7
2017-Mar-04 06:30N 40°57' E 028°55'1 0.9
2017-Mar-04 05:33N 40°57' E 028°56'  
2017-Mar-01 06:19N 46°16' E 030°44'0 0.0
2017-Mar-01 05:34N 46°16' E 030°44'0 0.0
2017-Mar-01 04:29N 46°16' E 030°44'0 0.0
2017-Mar-01 03:33N 46°16' E 030°44'0 0.0
2017-Mar-01 02:29N 46°16' E 030°44'0 0.0
2017-Mar-01 01:33N 46°16' E 030°44'0 0.0
2017-Mar-01 00:17N 46°16' E 030°44'0 0.0
2017-Feb-28 23:23N 46°16' E 030°44'0 0.0
2017-Feb-28 22:16N 46°16' E 030°44'0 0.3
2017-Feb-28 21:05N 46°16' E 030°44'3 5.0
2017-Feb-28 20:26N 46°19' E 030°42'2 0.8
2017-Feb-28 17:29N 46°20' E 030°39'0 0.0
2017-Feb-28 16:30N 46°20' E 030°39'0 0.0
2017-Feb-28 15:29N 46°20' E 030°39'0 0.0
2017-Feb-28 14:29N 46°20' E 030°39'0 0.0
2017-Feb-28 13:29N 46°20' E 030°39'0 0.0
2017-Feb-28 12:29N 46°20' E 030°39'0 0.0
2017-Feb-28 11:18N 46°20' E 030°39'0 0.0
2017-Feb-28 10:24N 46°20' E 030°39'0 0.0
2017-Feb-28 09:19N 46°20' E 030°39'0 0.0
2017-Feb-28 06:29N 46°20' E 030°39'0 0.0
2017-Feb-28 05:30N 46°20' E 030°39'0 0.0
2017-Feb-28 04:29N 46°20' E 030°39'0 0.0
2017-Feb-28 03:30N 46°20' E 030°39'0 0.0
2017-Feb-28 02:29N 46°20' E 030°39'0 0.0
2017-Feb-28 01:29N 46°20' E 030°39'0 0.0
2017-Feb-28 00:29N 46°20' E 030°39'0 0.0
2017-Feb-27 23:29N 46°20' E 030°39'0 0.0
2017-Feb-27 22:29N 46°20' E 030°39'0 0.0
2017-Feb-27 21:29N 46°20' E 030°39'0 0.0
2017-Feb-27 20:29N 46°20' E 030°39'0 0.0
2017-Feb-27 19:29N 46°20' E 030°39'0 0.0
2017-Feb-27 18:29N 46°20' E 030°39'0 0.0
2017-Feb-27 17:29N 46°20' E 030°39'0 0.0
2017-Feb-27 16:29N 46°20' E 030°39'0 0.0
2017-Feb-27 15:29N 46°20' E 030°39'0 0.0
2017-Feb-27 14:30N 46°20' E 030°39'0 0.0
2017-Feb-27 13:29N 46°20' E 030°39'0 0.0
2017-Feb-27 12:29N 46°20' E 030°39'0 0.0
2017-Feb-27 11:27N 46°20' E 030°39'0 0.0
2017-Feb-27 10:30N 46°20' E 030°39'0 0.0
2017-Feb-27 09:29N 46°20' E 030°39'0 0.0
2017-Feb-27 08:30N 46°20' E 030°39'0 0.0
2017-Feb-27 07:29N 46°20' E 030°39'0 0.0
2017-Feb-27 06:29N 46°20' E 030°39'0 0.0
2017-Feb-27 05:29N 46°20' E 030°39'0 0.0
2017-Feb-27 04:29N 46°20' E 030°39'0 0.0
2017-Feb-27 03:27N 46°20' E 030°39'0 0.0
2017-Feb-27 02:28N 46°20' E 030°39'0 0.0
2017-Feb-27 01:29N 46°20' E 030°39'1 0.9
2017-Feb-27 00:29N 46°19' E 030°40'3 2.7
2017-Feb-26 23:30N 46°18' E 030°44'3 3.2
2017-Feb-26 22:29N 46°15' E 030°43'0 0.0
2017-Feb-26 21:29N 46°15' E 030°43'0 0.0
2017-Feb-26 20:29N 46°15' E 030°43'0 0.0
2017-Feb-26 19:27N 46°15' E 030°43'0 0.0
2017-Feb-26 18:14N 46°15' E 030°44'0 0.0
2017-Feb-26 16:21N 46°15' E 030°43'0 0.0
2017-Feb-26 15:11N 46°15' E 030°43'0 0.0
2017-Feb-26 14:29N 46°15' E 030°43'0 0.0
2017-Feb-26 13:29N 46°15' E 030°43'0 0.0
2017-Feb-26 12:29N 46°15' E 030°43'0 0.0
2017-Feb-26 11:24N 46°15' E 030°43'0 0.0
2017-Feb-26 10:27N 46°15' E 030°43'0 0.0
2017-Feb-26 06:20N 46°15' E 030°43'0 0.1
2017-Feb-26 05:29N 46°15' E 030°43'0 0.1
2017-Feb-26 04:29N 46°15' E 030°44'0 0.0
2017-Feb-26 03:29N 46°15' E 030°44'0 0.1
2017-Feb-26 02:29N 46°15' E 030°44'0 0.0
2017-Feb-26 01:29N 46°15' E 030°44'0 0.0
2017-Feb-26 00:29N 46°15' E 030°44'0 0.0
2017-Feb-25 23:30N 46°15' E 030°44'0 0.0
2017-Feb-25 22:29N 46°15' E 030°44'0 0.0
2017-Feb-25 21:30N 46°15' E 030°44'0 0.0
2017-Feb-25 20:29N 46°15' E 030°44'0 0.0
2017-Feb-25 19:29N 46°15' E 030°44'0 0.0
2017-Feb-25 18:29N 46°15' E 030°44'0 0.0
2017-Feb-25 16:28N 46°15' E 030°43'0 0.1
2017-Feb-25 15:28N 46°15' E 030°44'0 0.0
2017-Feb-25 14:29N 46°15' E 030°44'0 0.0
2017-Feb-25 11:22N 46°15' E 030°43'0 0.0
2017-Feb-25 07:15N 46°15' E 030°43'0 0.0
2017-Feb-25 06:29N 46°15' E 030°43'0 0.2
2017-Feb-25 05:29N 46°15' E 030°44'0 0.1
2017-Feb-25 04:28N 46°15' E 030°43'0 0.0
2017-Feb-25 03:29N 46°15' E 030°43'0 0.0
2017-Feb-25 02:29N 46°15' E 030°43'0 0.0
2017-Feb-25 01:29N 46°15' E 030°43'0 0.0
2017-Feb-25 00:28N 46°15' E 030°43'0 0.0
2017-Feb-24 23:29N 46°15' E 030°43'0 0.0
2017-Feb-24 22:29N 46°15' E 030°43'0 0.0
2017-Feb-24 21:24N 46°15' E 030°43'0 0.0
2017-Feb-24 20:12N 46°15' E 030°43'0 0.0
2017-Feb-24 19:26N 46°15' E 030°43'0 0.0
2017-Feb-24 18:29N 46°15' E 030°43'0 0.0
2017-Feb-24 17:29N 46°15' E 030°43'0 0.0
2017-Feb-24 16:30N 46°15' E 030°43'0 0.0
2017-Feb-24 15:29N 46°15' E 030°43'0 0.0
2017-Feb-24 14:29N 46°15' E 030°43'0 0.0
2017-Feb-24 13:28N 46°15' E 030°43'0 0.0
2017-Feb-24 08:26N 46°15' E 030°43'0 0.0
2017-Feb-24 07:25N 46°15' E 030°43'  
Track history (hours):
 
Tides and Currents Weather Stations Pressure Air Temp Water Temp Dewpoint Dewpoint Depression Visibility Wind Speed Wind Dir Waves Ship Positions

Port Star

Last reported at 2017-Mar-05 14:20 UTC. Time now 2017-Mar-30 18:27 UTC.
Position N 37°22' E 025°55'.
Warning: this ship's position is 25 days out of date.

Length 175.5 m; beam 29.4 m.

Type: Ship. MMSI: 356105000.

Date/timePositionNaut miles runAvg speedWind from/ knotsBaromVisibWave heightAir tempDewpointWater temp
2017-Mar-05 14:20N 37°22' E 025°55'15912.3
2017-Mar-05 01:23N 40°01' E 026°03'14211.7
2017-Mar-04 13:15N 40°57' E 028°55'1 0.2
2017-Mar-04 07:04N 40°58' E 028°55'0 0.7
2017-Mar-04 06:30N 40°57' E 028°55'1 0.9
2017-Mar-04 05:33N 40°57' E 028°56'  
2017-Mar-01 06:19N 46°16' E 030°44'0 0.0
2017-Mar-01 05:34N 46°16' E 030°44'0 0.0
2017-Mar-01 04:29N 46°16' E 030°44'0 0.0
2017-Mar-01 03:33N 46°16' E 030°44'0 0.0
2017-Mar-01 02:29N 46°16' E 030°44'0 0.0
2017-Mar-01 01:33N 46°16' E 030°44'0 0.0
2017-Mar-01 00:17N 46°16' E 030°44'0 0.0
2017-Feb-28 23:23N 46°16' E 030°44'0 0.0
2017-Feb-28 22:16N 46°16' E 030°44'0 0.3
2017-Feb-28 21:05N 46°16' E 030°44'3 5.0
2017-Feb-28 20:26N 46°19' E 030°42'2 0.8
2017-Feb-28 17:29N 46°20' E 030°39'0 0.0
2017-Feb-28 16:30N 46°20' E 030°39'0 0.0
2017-Feb-28 15:29N 46°20' E 030°39'0 0.0
2017-Feb-28 14:29N 46°20' E 030°39'0 0.0
2017-Feb-28 13:29N 46°20' E 030°39'0 0.0
2017-Feb-28 12:29N 46°20' E 030°39'0 0.0
2017-Feb-28 11:18N 46°20' E 030°39'0 0.0
2017-Feb-28 10:24N 46°20' E 030°39'0 0.0
2017-Feb-28 09:19N 46°20' E 030°39'0 0.0
2017-Feb-28 06:29N 46°20' E 030°39'0 0.0
2017-Feb-28 05:30N 46°20' E 030°39'0 0.0
2017-Feb-28 04:29N 46°20' E 030°39'0 0.0
2017-Feb-28 03:30N 46°20' E 030°39'0 0.0
2017-Feb-28 02:29N 46°20' E 030°39'0 0.0
2017-Feb-28 01:29N 46°20' E 030°39'0 0.0
2017-Feb-28 00:29N 46°20' E 030°39'0 0.0
2017-Feb-27 23:29N 46°20' E 030°39'0 0.0
2017-Feb-27 22:29N 46°20' E 030°39'0 0.0
2017-Feb-27 21:29N 46°20' E 030°39'0 0.0
2017-Feb-27 20:29N 46°20' E 030°39'0 0.0
2017-Feb-27 19:29N 46°20' E 030°39'0 0.0
2017-Feb-27 18:29N 46°20' E 030°39'0 0.0
2017-Feb-27 17:29N 46°20' E 030°39'0 0.0
2017-Feb-27 16:29N 46°20' E 030°39'0 0.0
2017-Feb-27 15:29N 46°20' E 030°39'0 0.0
2017-Feb-27 14:30N 46°20' E 030°39'0 0.0
2017-Feb-27 13:29N 46°20' E 030°39'0 0.0
2017-Feb-27 12:29N 46°20' E 030°39'0 0.0
2017-Feb-27 11:27N 46°20' E 030°39'0 0.0
2017-Feb-27 10:30N 46°20' E 030°39'0 0.0
2017-Feb-27 09:29N 46°20' E 030°39'0 0.0
2017-Feb-27 08:30N 46°20' E 030°39'0 0.0
2017-Feb-27 07:29N 46°20' E 030°39'0 0.0
2017-Feb-27 06:29N 46°20' E 030°39'0 0.0
2017-Feb-27 05:29N 46°20' E 030°39'0 0.0
2017-Feb-27 04:29N 46°20' E 030°39'0 0.0
2017-Feb-27 03:27N 46°20' E 030°39'0 0.0
2017-Feb-27 02:28N 46°20' E 030°39'0 0.0
2017-Feb-27 01:29N 46°20' E 030°39'1 0.9
2017-Feb-27 00:29N 46°19' E 030°40'3 2.7
2017-Feb-26 23:30N 46°18' E 030°44'3 3.2
2017-Feb-26 22:29N 46°15' E 030°43'0 0.0
2017-Feb-26 21:29N 46°15' E 030°43'0 0.0
2017-Feb-26 20:29N 46°15' E 030°43'0 0.0
2017-Feb-26 19:27N 46°15' E 030°43'0 0.0
2017-Feb-26 18:14N 46°15' E 030°44'0 0.0
2017-Feb-26 16:21N 46°15' E 030°43'0 0.0
2017-Feb-26 15:11N 46°15' E 030°43'0 0.0
2017-Feb-26 14:29N 46°15' E 030°43'0 0.0
2017-Feb-26 13:29N 46°15' E 030°43'0 0.0
2017-Feb-26 12:29N 46°15' E 030°43'0 0.0
2017-Feb-26 11:24N 46°15' E 030°43'0 0.0
2017-Feb-26 10:27N 46°15' E 030°43'0 0.0
2017-Feb-26 06:20N 46°15' E 030°43'0 0.1
2017-Feb-26 05:29N 46°15' E 030°43'0 0.1
2017-Feb-26 04:29N 46°15' E 030°44'0 0.0
2017-Feb-26 03:29N 46°15' E 030°44'0 0.1
2017-Feb-26 02:29N 46°15' E 030°44'0 0.0
2017-Feb-26 01:29N 46°15' E 030°44'0 0.0
2017-Feb-26 00:29N 46°15' E 030°44'0 0.0
2017-Feb-25 23:30N 46°15' E 030°44'0 0.0
2017-Feb-25 22:29N 46°15' E 030°44'0 0.0
2017-Feb-25 21:30N 46°15' E 030°44'0 0.0
2017-Feb-25 20:29N 46°15' E 030°44'0 0.0
2017-Feb-25 19:29N 46°15' E 030°44'0 0.0
2017-Feb-25 18:29N 46°15' E 030°44'0 0.0
2017-Feb-25 16:28N 46°15' E 030°43'0 0.1
2017-Feb-25 15:28N 46°15' E 030°44'0 0.0
2017-Feb-25 14:29N 46°15' E 030°44'0 0.0
2017-Feb-25 11:22N 46°15' E 030°43'0 0.0
2017-Feb-25 07:15N 46°15' E 030°43'0 0.0
2017-Feb-25 06:29N 46°15' E 030°43'0 0.2
2017-Feb-25 05:29N 46°15' E 030°44'0 0.1
2017-Feb-25 04:28N 46°15' E 030°43'0 0.0
2017-Feb-25 03:29N 46°15' E 030°43'0 0.0
2017-Feb-25 02:29N 46°15' E 030°43'0 0.0
2017-Feb-25 01:29N 46°15' E 030°43'0 0.0
2017-Feb-25 00:28N 46°15' E 030°43'0 0.0
2017-Feb-24 23:29N 46°15' E 030°43'0 0.0
2017-Feb-24 22:29N 46°15' E 030°43'0 0.0
2017-Feb-24 21:24N 46°15' E 030°43'0 0.0
2017-Feb-24 20:12N 46°15' E 030°43'0 0.0
2017-Feb-24 19:26N 46°15' E 030°43'0 0.0
2017-Feb-24 18:29N 46°15' E 030°43'0 0.0
2017-Feb-24 17:29N 46°15' E 030°43'0 0.0
2017-Feb-24 16:30N 46°15' E 030°43'0 0.0
2017-Feb-24 15:29N 46°15' E 030°43'0 0.0
2017-Feb-24 14:29N 46°15' E 030°43'0 0.0
2017-Feb-24 13:28N 46°15' E 030°43'0 0.0
2017-Feb-24 08:26N 46°15' E 030°43'0 0.0
2017-Feb-24 07:25N 46°15' E 030°43'  

Dump ship's entire track history